Date,TemperatureHighF,TemperatureAvgF,TemperatureLowF,DewpointHighF,DewpointAvgF,DewpointLowF,HumidityHigh,HumidityAvg,HumidityLow,PressureMaxIn,PressureMinIn,WindSpeedMaxMPH,WindSpeedAvgMPH,GustSpeedMaxMPH,PrecipitationSumIn
2013-5-3,50,50,50,50,50,50,50,50,50,29.86,29.00,0,0,0,0.00
2013-5-4,50,50,50,50,50,50,50,50,50,29.72,27.90,0,0,0,0.00
2013-5-5,56,50,43,50,48,41,93,60,50,30.32,29.69,5,1,16,0.00
2013-5-6,65,51,43,54,47,42,96,87,63,30.32,30.19,6,2,12,0.00
2013-5-7,70,58,47,61,54,46,98,88,67,30.22,30.16,9,2,14,0.00
2013-5-8,71,63,55,64,60,54,97,89,76,30.22,30.07,8,4,20,1.76
2013-5-9,65,60,53,62,58,52,98,95,88,30.07,29.91,12,3,15,0.11
2013-5-10,68,59,54,61,57,53,98,91,74,30.00,29.91,15,6,16,0.00
2013-5-11,65,60,57,63,58,55,98,94,89,29.98,29.75,22,10,27,0.96
2013-5-12,60,58,52,59,54,39,98,88,54,29.84,29.63,23,9,23,0.08
2013-5-13,55,52,47,44,39,32,74,62,49,30.03,29.84,24,8,26,0.00
2013-5-14,58,50,42,44,38,33,77,62,44,30.07,29.99,18,3,18,0.00
2013-5-15,59,53,40,56,47,36,93,80,58,30.09,29.72,24,8,24,0.00
2013-5-16,70,59,54,56,54,52,95,83,54,29.81,29.68,26,8,26,0.00
2013-5-17,66,58,49,52,47,43,91,69,48,30.24,29.81,17,2,17,0.00
2013-5-18,64,55,43,55,51,41,95,85,71,30.33,30.24,16,5,16,0.00
2013-5-19,63,58,55,56,53,50,95,83,70,30.39,30.27,17,7,17,0.08
2013-5-20,65,60,56,62,58,55,98,95,90,30.27,29.97,18,8,18,0.11
2013-5-21,67,59,54,65,58,53,98,96,88,30.00,29.90,16,4,18,0.05
2013-5-22,64,58,51,61,56,50,97,95,86,30.01,29.93,19,5,19,0.01
2013-5-23,67,62,60,65,61,59,98,97,92,29.98,29.88,26,14,26,0.16
2013-5-24,67,61,54,66,60,53,98,97,95,29.89,29.70,33,8,33,0.65
2013-5-25,54,50,43,53,49,41,97,95,90,29.78,29.70,17,3,17,0.20
2013-5-26,59,50,42,45,42,39,93,75,50,30.12,29.75,21,5,21,0.01
2013-5-27,71,57,47,53,46,38,87,67,32,30.16,30.10,24,5,24,0.00
2013-5-28,68,58,44,58,52,42,96,81,53,30.26,30.19,10,4,15,0.00
2013-5-29,62,59,58,59,58,56,96,94,91,30.24,30.05,12,8,18,4.61
2013-5-30,71,64,59,66,61,58,96,91,84,30.12,30.05,16,6,22,0.16
2013-5-31,75,67,61,68,63,59,94,87,78,30.12,30.00,15,5,15,0.00
2013-6-1,68,64,61,64,62,59,96,91,87,30.04,29.97,15,11,21,0.00
2013-6-2,68,64,62,64,62,61,97,94,88,29.99,29.87,24,14,24,0.00
2013-6-3,64,63,62,64,62,61,98,97,95,29.89,29.82,22,12,22,0.82
2013-6-4,73,63,52,62,51,46,100,67,42,30.10,29.82,13,2,13,0.00
2013-6-5,69,60,46,55,51,45,95,74,50,30.21,30.09,15,4,15,0.00
2013-6-6,71,62,54,61,55,51,92,77,54,30.23,30.11,13,3,13,0.00
2013-6-7,70,58,56,68,56,52,97,93,81,30.13,29.77,24,4,24,1.63
2013-6-8,71,65,58,69,63,57,97,92,78,30.03,29.57,25,10,25,0.24
2013-6-9,76,66,57,64,61,56,96,84,55,30.19,30.02,20,4,20,0.00
2013-6-10,72,63,56,63,60,54,96,88,70,30.22,30.01,13,2,13,0.61
2013-6-11,66,63,55,65,62,54,97,96,93,30.01,29.56,22,8,22,0.89
2013-6-12,72,63,55,59,57,54,96,81,58,29.82,29.58,13,3,18,0.00
2013-6-13,65,59,53,60,56,51,94,90,75,29.85,29.63,18,2,20,0.21
2013-6-14,61,54,53,55,53,52,96,94,82,29.69,29.58,37,7,37,0.70
2013-6-15,78,66,56,61,55,48,93,71,35,29.97,29.76,9,3,16,0.00
2013-6-16,70,66,62,63,61,57,94,85,67,29.98,29.79,24,8,26,0.00
2013-6-17,74,67,63,67,64,60,94,89,80,29.95,29.81,21,6,21,0.00
2013-6-18,78,66,60,68,62,58,95,86,64,29.96,29.88,12,2,16,0.03
2013-6-19,73,63,57,60,57,53,95,81,60,30.03,29.87,19,2,19,0.02
2013-6-20,70,64,56,63,59,54,94,82,70,30.31,30.17,16,7,21,0.00
2013-6-21,69,66,63,62,60,57,85,80,72,30.31,30.25,22,12,22,0.00
2013-6-22,72,67,65,64,63,60,94,86,71,30.28,30.19,18,10,21,0.00
2013-6-23,72,68,65,67,66,63,97,91,84,30.22,30.09,24,12,24,0.00
2013-6-24,77,71,67,72,69,66,97,93,81,30.09,29.90,18,9,18,0.00
2013-6-25,79,72,69,72,68,66,94,89,78,29.94,29.78,19,8,19,0.00
2013-6-26,78,73,68,73,70,66,95,90,83,29.87,29.75,21,5,21,0.02
2013-6-27,79,68,65,74,66,64,97,94,82,29.88,29.77,11,1,11,0.01
2013-6-28,72,70,67,70,69,66,97,96,95,29.78,29.58,24,11,24,0.68
2013-6-29,73,70,68,70,69,67,97,95,90,29.78,29.57,41,12,41,0.73
2013-6-30,71,70,69,69,68,68,97,95,90,29.99,29.77,22,10,22,0.06
2013-7-1,73,71,69,71,70,68,97,95,93,30.14,29.99,22,10,22,0.18
2013-7-2,74,72,70,72,70,68,96,95,92,30.24,30.13,20,10,20,0.03
2013-7-3,74,72,70,72,70,69,97,96,92,30.26,30.20,23,12,23,0.00
2013-7-4,77,73,70,74,71,69,97,95,90,30.25,30.15,23,12,23,0.00
2013-7-5,79,74,72,75,72,70,96,93,87,30.19,30.10,23,10,23,0.00
2013-7-6,81,76,72,77,74,71,96,91,86,30.11,30.00,18,6,18,0.00
2013-7-7,82,76,73,77,74,71,96,91,78,30.05,29.94,17,5,17,0.29
2013-7-8,79,50,73,75,16,-100,96,62,85,30.05,29.95,22,9,22,0.00
2013-7-22,77,77,77,74,74,74,1,1,1,30.03,29.92,5,1,11,0.00
2013-7-23,77,77,50,74,73,50,50,2,1,29.92,29.59,17,8,23,0.00
2013-7-24,77,64,50,74,62,50,50,26,1,29.93,29.61,10,3,16,0.00
2013-7-25,77,77,77,74,74,74,1,1,1,30.09,29.94,7,4,29,0.00
2013-7-26,77,77,77,74,74,74,1,1,1,30.05,29.92,7,3,21,0.31
2013-7-27,77,63,50,74,61,50,50,27,1,30.11,30.05,13,7,18,0.00
2013-7-28,79,62,50,74,61,50,94,68,1,30.06,29.98,11,2,14,0.24
2013-7-29,79,74,68,74,71,67,97,91,81,30.08,30.02,13,4,13,0.00
2013-7-30,81,73,64,71,65,57,96,77,46,30.14,30.06,14,2,14,0.00
2013-7-31,79,71,61,66,62,57,95,75,49,30.17,30.11,15,4,15,0.00
2013-8-1,79,72,65,69,65,62,96,81,65,30.11,29.94,16,5,17,0.06
2013-8-2,83,71,64,72,67,62,98,87,55,29.94,29.84,19,4,19,0.27
2013-8-3,75,72,70,70,67,64,92,84,72,29.94,29.84,20,7,20,0.00
2013-8-4,80,69,59,65,60,56,93,74,50,29.92,29.81,14,1,14,0.00
2013-8-5,78,67,56,59,54,46,94,66,33,30.09,29.92,11,2,14,0.00
2013-8-6,77,65,50,60,53,48,97,69,39,30.21,30.08,13,2,13,0.00
2013-8-7,76,67,54,66,56,52,97,71,45,30.24,30.18,17,2,17,0.00
2013-8-8,75,71,64,71,66,55,92,84,72,30.19,30.09,19,8,21,0.01
2013-8-9,76,74,72,73,72,70,97,93,89,30.11,29.83,30,12,30,0.43
2013-8-10,83,74,64,72,66,56,98,78,47,30.05,29.83,21,3,21,0.00
2013-8-11,77,68,56,62,57,51,95,69,45,30.12,30.04,18,4,18,0.00
2013-8-12,75,71,66,70,66,61,96,85,76,30.09,29.98,16,6,16,0.00
2013-8-13,71,68,63,69,66,61,98,94,89,29.97,29.73,10,1,10,0.04
2013-8-14,76,70,64,66,58,51,97,69,48,29.90,29.70,22,4,22,0.00
2013-8-15,74,66,56,59,54,48,90,67,41,30.17,29.99,14,5,23,0.00
2013-8-16,75,68,57,64,60,55,94,76,55,30.25,30.16,12,5,17,0.00
2013-8-17,79,71,59,64,62,57,96,74,56,30.33,30.25,11,2,12,0.00
2013-8-18,76,67,58,65,61,57,98,83,58,30.32,30.13,6,0,6,0.04
2013-8-19,80,70,59,69,63,57,98,79,56,30.14,30.00,14,3,14,0.01
2013-8-20,80,73,64,70,67,62,95,82,67,30.14,30.02,14,4,14,0.00
2013-8-21,80,71,62,71,66,60,98,86,69,30.19,30.10,14,3,16,0.00
2013-8-22,75,72,70,72,70,68,97,93,86,30.10,29.89,20,10,20,0.00
2013-8-23,78,70,61,70,63,56,98,79,52,30.14,29.85,20,3,21,0.00
2013-8-24,73,64,51,60,53,45,93,71,38,30.38,30.14,17,2,17,0.00
2013-8-25,79,66,49,64,58,48,98,76,46,30.41,30.26,17,4,18,0.00
2013-8-26,74,71,69,68,66,60,91,84,71,30.26,29.94,24,10,24,0.00
2013-8-27,76,70,67,72,69,66,98,95,82,29.94,29.87,15,2,15,0.31
2013-8-28,78,70,65,71,67,64,99,92,73,29.99,29.89,12,1,12,0.00
2013-8-29,67,64,59,66,63,58,98,95,89,30.09,29.98,16,2,21,0.02
2013-8-30,72,66,59,69,64,58,97,91,83,30.06,29.90,19,6,19,0.00
2013-8-31,72,71,70,71,70,68,97,95,93,29.91,29.87,20,10,20,0.00
2013-9-1,74,72,71,72,71,70,98,97,94,29.94,29.87,18,7,19,0.35
2013-9-2,78,74,72,75,72,71,98,96,86,29.92,29.76,19,5,22,0.28
2013-9-3,75,71,66,73,70,66,100,98,90,29.85,29.74,16,5,23,1.90
2013-9-4,78,70,60,67,64,58,97,80,59,29.98,29.84,19,4,19,0.00
2013-9-5,71,68,65,66,64,60,93,86,75,30.02,29.92,9,2,18,0.00
2013-9-6,69,61,49,54,51,47,98,72,50,30.28,30.16,9,1,11,0.01
2013-9-7,71,63,58,57,53,49,83,71,46,30.16,30.06,17,5,17,0.00
2013-9-8,78,65,55,66,54,44,90,69,42,30.13,29.79,10,3,20,0.00
2013-9-9,66,59,44,57,49,41,95,71,43,30.29,30.13,19,5,20,0.00
2013-9-10,71,68,62,67,62,56,94,83,72,30.23,30.11,25,12,25,0.00
2013-9-11,74,71,69,71,69,67,97,94,87,30.15,30.04,19,10,19,0.00
2013-9-12,74,71,70,71,70,68,97,94,90,30.06,29.75,25,12,26,0.00
2013-9-13,76,69,62,70,67,45,98,92,49,29.97,29.61,19,3,24,0.04
2013-9-14,73,64,55,59,56,52,91,78,59,30.10,29.77,8,1,9,0.00
2013-9-15,67,60,50,58,53,48,97,80,63,30.22,30.10,18,4,18,0.01
2013-9-16,68,61,53,60,56,44,93,84,65,30.25,30.07,20,2,20,0.02
2013-9-17,59,53,42,46,42,39,96,69,51,30.44,30.25,18,3,23,0.00
2013-9-18,67,56,40,55,47,38,98,76,41,30.38,30.20,18,4,18,0.01
2013-9-19,70,63,54,61,56,51,92,80,62,30.21,30.10,15,4,16,0.00
2013-9-20,73,60,52,63,57,51,98,90,64,30.14,30.07,11,2,14,0.00
2013-9-21,75,68,58,67,63,57,98,84,64,30.10,29.82,20,6,22,0.01
2013-9-22,72,67,54,68,62,49,97,84,62,29.85,29.69,30,6,30,0.23
2013-9-23,67,55,47,50,46,42,92,72,46,30.04,29.85,15,2,15,0.00
2013-9-24,68,53,44,50,45,40,92,75,47,30.04,29.86,11,2,13,0.00
2013-9-25,66,54,44,52,48,43,98,80,59,30.02,29.93,14,1,15,0.00
2013-9-26,64,57,51,52,50,48,94,80,60,30.15,30.01,15,1,15,0.00
2013-9-27,65,57,47,56,52,45,95,84,67,30.30,30.15,19,2,19,0.00
2013-9-28,71,56,44,60,51,43,99,85,59,30.35,30.29,11,1,11,0.00
2013-9-29,67,56,41,56,51,40,99,86,65,30.31,30.14,11,2,13,0.01
2013-9-30,68,60,49,58,55,48,97,85,66,30.14,30.01,13,2,14,0.00
2013-10-1,78,60,47,59,53,46,100,79,43,30.01,29.90,12,1,12,0.01
2013-10-2,80,66,54,65,59,53,97,80,52,30.00,29.87,17,2,20,0.00
2013-10-3,76,64,52,62,57,50,97,78,45,30.13,30.00,12,2,13,0.00
2013-10-4,68,57,49,60,55,48,98,92,69,30.13,30.07,10,0,10,0.07
2013-10-5,67,60,55,64,58,54,99,93,79,30.17,30.10,8,1,11,0.09
2013-10-6,63,59,57,61,57,54,98,94,84,30.25,30.16,14,2,16,0.05
2013-10-7,76,70,63,71,68,61,98,92,82,30.16,29.89,24,8,27,0.20
2013-10-8,68,59,48,66,50,45,98,74,46,30.39,29.93,16,2,16,0.01
2013-10-9,61,55,48,49,46,41,94,72,61,30.48,30.39,21,4,21,0.00
2013-10-10,66,58,50,58,54,44,94,87,75,30.39,30.18,17,3,17,0.00
2013-10-11,67,60,53,60,57,50,95,89,72,30.18,30.13,17,3,19,0.00
2013-10-12,64,58,53,58,54,50,95,87,80,30.41,30.16,23,5,24,0.00
2013-10-13,61,54,41,50,47,39,96,79,63,30.47,30.38,20,3,20,0.00
2013-10-14,63,49,36,52,44,35,99,85,59,30.45,30.32,8,1,10,0.00
2013-10-15,68,54,42,54,48,41,100,83,47,30.32,30.21,11,1,11,0.00
2013-10-16,61,56,49,58,54,48,98,96,91,30.22,29.95,11,1,13,0.00
2013-10-17,66,61,56,62,59,55,98,95,88,29.96,29.80,18,7,18,0.00
2013-10-18,70,63,50,63,54,46,97,75,48,29.97,29.69,22,4,24,0.02
2013-10-19,64,54,40,51,45,37,96,73,53,30.05,29.94,12,3,13,0.00
2013-10-20,64,54,41,58,44,36,93,72,36,30.08,29.76,8,2,20,0.00
2013-10-21,64,50,36,49,41,34,97,75,49,30.17,30.08,16,2,18,0.00